Latest Weather Observations for Birdsville

IDQ60801

Issued at 1:02 pm EST Tuesday 24 January 2017 (issued every 30 minutes, with the page automatically refreshed every 10 minutes)

About weather observations | Map of weather stations | Latest weather observations for QLD | Other Formats
Station Details ID: 038026 Name: BIRDSVILLE AIRPORT Lat: -25.90 Lon: 139.35 Height: 46.6 m
Data from the previous 72 hours. | See also: Recent months at Birdsville
Date/Time
EST
Temp
°C
App
Temp
°C
Dew
Point
°C
Rel
Hum
%
Delta-T
°C
Wind Press
QNH
hPa
Press
MSL
hPa
Rain since
9am
mm
Dir  Spd
km/h
Gust
km/h
Spd
kts
Gust
kts
24/01:00pm 38.6 37.9 19.4 32 12.9 NW 22 24 12 13 1009.7 1009.3 -
24/12:30pm 38.2 38.4 20.5 35 12.0 NW 20 35 11 19 1010.0 1009.6 0.0
24/12:00pm 36.9 37.9 22.2 42 10.1 NW 20 32 11 17 1010.4 1010.0 0.0
24/11:30am 36.5 37.6 22.3 44 9.8 WNW 20 30 11 16 1010.7 1010.4 0.0
24/11:00am 36.0 37.2 23.2 47 8.9 WNW 22 32 12 17 1010.9 1010.6 0.0
24/10:30am 35.1 36.0 23.4 50 8.2 WNW 24 33 13 18 1010.9 1010.6 0.0
24/10:00am 34.3 35.4 23.6 53 7.5 WNW 24 32 13 17 1011.1 1010.8 0.0
24/09:30am 32.9 34.5 23.8 58 6.3 NW 22 32 12 17 1011.2 1010.9 0.0
24/09:00am 31.5 32.9 23.6 63 5.5 NNW 22 26 12 14 1011.2 1010.9 0.0
24/08:30am 31.2 33.6 23.6 64 5.3 N 17 22 9 12 1011.1 1010.8 0.0
24/08:00am 31.3 33.2 23.7 64 5.3 N 20 26 11 14 1010.6 1010.3 0.0
24/07:30am 30.4 33.7 23.8 68 4.6 NNE 13 15 7 8 1010.0 1009.6 0.0
24/07:00am 29.5 33.1 23.7 71 4.0 NNE 11 13 6 7 1009.2 1008.8 0.0
24/06:30am 29.5 32.9 23.4 69 4.2 N 11 13 6 7 1008.9 1008.5 0.0
24/06:00am 29.6 32.2 23.3 69 4.3 N 15 20 8 11 1008.1 1007.7 0.0
24/05:30am 29.6 31.9 23.5 69 4.2 NNW 17 22 9 12 1007.6 1007.2 0.0
24/05:00am 29.7 31.7 23.6 69 4.2 N 19 22 10 12 1007.4 1007.0 0.0
24/04:30am 29.5 31.7 23.2 69 4.3 N 17 20 9 11 1007.1 1006.7 0.0
24/04:00am 29.4 31.5 23.1 69 4.3 N 17 22 9 12 1006.9 1006.5 0.0
24/03:30am 29.7 32.6 23.2 68 4.5 NNE 13 17 7 9 1006.7 1006.3 0.0
24/03:00am 30.1 32.0 22.8 65 5.0 N 17 19 9 10 1006.7 1006.3 0.0
24/02:30am 30.3 31.6 22.7 64 5.2 N 20 26 11 14 1006.9 1006.5 0.0
24/02:00am 30.1 31.5 22.5 63 5.2 N 19 22 10 12 1007.0 1006.6 0.0
24/01:30am 30.2 31.5 22.4 63 5.3 N 19 22 10 12 1006.9 1006.5 0.0
24/01:00am 30.4 31.8 22.8 64 5.2 N 20 24 11 13 1007.0 1006.6 0.0
24/12:30am 30.8 32.6 23.2 64 5.2 N 19 24 10 13 1007.3 1006.9 0.0
24/12:00am 31.1 32.6 22.7 61 5.8 N 19 24 10 13 1007.5 1007.1 0.0
 
Date/Time
EST
Temp
°C
App
Temp
°C
Dew
Point
°C
Rel
Hum
%
Delta-T
°C
Wind Press
QNH
hPa
Press
MSL
hPa
Rain since
9am
mm
Dir  Spd
km/h
Gust
km/h
Spd
kts
Gust
kts
23/11:30pm 31.3 32.0 22.9 61 5.8 N 24 32 13 17 1007.8 1007.4 0.0
23/11:00pm 31.8 32.6 23.1 60 6.0 N 24 30 13 16 1007.7 1007.3 0.0
23/10:30pm 32.1 32.8 23.6 60 5.9 NNE 26 35 14 19 1007.7 1007.3 0.0
23/10:16pm 32.3 32.7 23.8 61 5.9 NNE 28 39 15 21 1007.5 1007.1 0.0
23/10:00pm 31.8 34.2 23.6 62 5.7 NNE 17 20 9 11 1007.6 1007.2 0.0
23/09:30pm 31.9 33.7 23.2 60 6.0 NNE 19 26 10 14 1007.3 1006.9 0.0
23/09:00pm 32.4 34.2 23.6 59 6.1 NNE 20 26 11 14 1007.0 1006.6 0.0
23/08:30pm 31.9 35.1 25.0 67 4.9 NE 17 24 9 13 1006.4 1006.0 0.0
23/08:00pm 32.4 34.8 24.2 62 5.8 NE 19 26 10 14 1006.1 1005.7 0.0
23/07:30pm 32.7 35.8 24.2 61 6.0 NE 15 19 8 10 1005.6 1005.2 0.0
23/07:00pm 32.9 35.3 24.6 61 5.9 NE 20 24 11 13 1005.3 1004.9 0.0
23/06:30pm 33.3 36.0 24.2 59 6.4 NE 17 19 9 10 1004.7 1004.3 0.0
23/06:00pm 33.8 36.9 24.1 57 6.8 ENE 15 17 8 9 1003.9 1003.5 0.0
23/05:30pm 33.6 36.7 24.2 58 6.6 ENE 15 20 8 11 1004.1 1003.7 0.0
23/05:00pm 33.3 36.4 24.2 59 6.4 E 15 17 8 9 1004.3 1003.9 0.0
23/04:30pm 33.4 37.2 24.0 58 6.6 NE 11 20 6 11 1005.0 1004.6 0.0
23/04:00pm 34.9 38.0 22.9 49 8.3 NW 11 17 6 9 1005.1 1004.7 0.0
23/03:30pm 35.2 36.2 22.2 47 8.9 NW 20 28 11 15 1005.4 1005.0 0.0
23/03:00pm 35.6 34.4 22.2 46 9.2 NNW 32 39 17 21 1005.2 1004.8 0.0
23/02:30pm 36.1 36.1 23.0 46 9.1 NW 28 41 15 22 1005.6 1005.2 0.0
23/02:00pm 37.2 37.3 23.3 45 9.7 NNW 28 41 15 22 1005.7 1005.3 0.0
23/01:30pm 36.9 38.2 24.1 48 9.0 NNW 24 35 13 19 1005.8 1005.4 0.0
23/01:00pm 36.5 37.8 24.0 48 8.8 NNW 24 35 13 19 1006.2 1005.8 0.0
23/12:30pm 36.8 37.5 24.3 48 8.8 NNW 28 39 15 21 1006.7 1006.3 0.0
23/12:00pm 35.8 36.8 24.7 52 7.9 N 28 35 15 19 1007.1 1006.7 0.0
23/11:30am 35.0 36.3 24.0 53 7.7 N 24 35 13 19 1007.5 1007.1 0.0
23/11:00am 34.4 37.0 24.9 57 6.7 N 20 30 11 16 1007.7 1007.3 0.0
23/10:30am 33.1 35.1 24.6 61 6.0 N 22 28 12 15 1007.9 1007.5 0.0
23/10:00am 32.6 34.8 24.9 64 5.4 N 22 32 12 17 1007.9 1007.5 0.0
23/09:30am 31.7 33.2 24.3 65 5.2 N 24 32 13 17 1007.6 1007.2 0.0
23/09:00am 30.8 33.3 24.7 70 4.3 N 20 26 11 14 1007.5 1007.1 35.6
23/08:30am 29.9 32.7 25.0 75 3.4 N 19 20 10 11 1007.4 1007.0 35.6
23/08:00am 29.1 32.9 25.3 80 2.7 NNE 15 19 8 10 1007.3 1006.9 35.6
23/07:30am 28.4 31.2 25.0 82 2.4 NNE 19 24 10 13 1006.8 1006.4 35.6
23/07:00am 28.0 31.1 24.8 83 2.2 NE 17 20 9 11 1006.2 1005.8 35.6
23/06:30am 27.5 31.8 24.9 86 1.8 N 11 13 6 7 1005.9 1005.5 35.6
23/06:00am 27.3 32.2 25.3 89 1.4 NNW 9 11 5 6 1005.4 1005.0 35.6
23/05:30am 27.6 32.2 25.4 88 1.5 N 11 13 6 7 1005.2 1004.8 35.6
23/05:00am 27.8 32.4 25.4 87 1.7 NNW 11 13 6 7 1004.9 1004.5 35.6
23/04:30am 28.2 32.8 26.0 88 1.6 NNW 13 17 7 9 1004.9 1004.5 35.6
23/04:00am 28.3 33.5 26.3 89 1.4 N 11 15 6 8 1005.0 1004.6 35.6
23/03:30am 28.5 33.8 26.5 89 1.4 N 11 13 6 7 1004.7 1004.3 35.4
23/03:00am 28.8 33.4 26.0 85 2.0 N 13 17 7 9 1004.8 1004.4 35.4
23/02:30am 28.8 33.3 25.8 84 2.1 N 13 19 7 10 1005.2 1004.8 35.4
23/02:00am 29.1 33.8 26.1 84 2.1 NNE 13 19 7 10 1005.5 1005.1 35.4
23/01:30am 29.6 34.9 25.8 80 2.7 NNE 9 13 5 7 1005.8 1005.4 35.4
23/01:00am 29.9 35.0 25.0 75 3.5 NNE 7 9 4 5 1005.8 1005.4 35.4
23/12:30am 30.3 34.2 24.9 73 3.8 NNE 13 15 7 8 1006.2 1005.8 35.4
23/12:00am 30.3 35.4 25.6 76 3.3 NNE 9 11 5 6 1006.5 1006.1 35.4
 
Date/Time
EST
Temp
°C
App
Temp
°C
Dew
Point
°C
Rel
Hum
%
Delta-T
°C
Wind Press
QNH
hPa
Press
MSL
hPa
Rain since
9am
mm
Dir  Spd
km/h
Gust
km/h
Spd
kts
Gust
kts
22/11:30pm 30.3 34.2 25.4 75 3.5 N 15 20 8 11 1006.8 1006.4 35.4
22/11:00pm 30.2 34.8 25.9 78 3.1 NNE 13 15 7 8 1006.8 1006.4 35.4
22/10:30pm 31.5 35.8 26.7 75 3.5 NNE 17 28 9 15 1006.9 1006.5 35.4
22/10:00pm 31.3 39.0 28.7 86 1.9 ENE 7 9 4 5 1006.1 1005.7 35.4
22/09:30pm 30.7 38.4 28.7 89 1.5 NNW 7 9 4 5 1006.0 1005.6 35.4
22/09:00pm 31.1 39.3 28.7 87 1.8 E 4 9 2 5 1005.7 1005.3 35.4
22/08:30pm 30.7 40.9 30.7 100 0.0 ESE 2 7 1 4 1005.6 1005.2 35.4
22/08:00pm 30.5 39.8 30.5 100 0.0 NNE 6 7 3 4 1005.4 1005.0 35.4
22/07:30pm 30.2 40.0 30.2 100 0.0 WSW 2 6 1 3 1005.1 1004.7 35.4
22/07:00pm 29.7 38.7 29.7 100 0.0 SSE 4 9 2 5 1004.5 1004.1 35.4
22/06:30pm 29.1 35.6 29.1 100 0.0 S 15 17 8 9 1004.6 1004.2 35.4
22/06:00pm 27.4 30.5 27.4 100 0.0 S 26 35 14 19 1005.0 1004.6 34.6
22/05:30pm 27.0 28.7 27.0 100 0.0 S 32 41 17 22 1006.1 1005.7 30.0
22/05:20pm 26.2 26.0 26.2 100 0.0 S 39 57 21 31 1006.1 1005.7 24.2
22/05:07pm 27.6 26.5 24.8 85 2.0 WSW 39 56 21 30 1005.9 1005.5 6.6
22/05:00pm 30.7 30.4 24.8 71 4.2 WSW 35 56 19 30 1005.1 1004.7 3.2
22/04:59pm 31.0 30.6 24.6 68 4.5 WSW 35 56 19 30 1005.0 1004.6 2.8
22/04:57pm 31.4 31.6 25.0 69 4.5 W 33 44 18 24 1004.9 1004.5 1.6
22/04:30pm 36.6 36.4 22.0 43 10.0 NNW 26 37 14 20 1004.0 1003.6 0.0
22/04:23pm 38.1 40.8 22.9 41 10.6 WSW 13 37 7 20 1004.0 1003.6 0.0
22/04:00pm 39.0 40.5 21.2 35 12.2 NW 15 22 8 12 1004.2 1003.8 0.0
22/03:30pm 38.5 41.1 21.2 36 11.8 E 9 17 5 9 1004.5 1004.1 0.0
22/03:00pm 39.3 41.3 21.5 36 12.3 WNW 13 26 7 14 1005.2 1004.8 0.0
22/02:30pm 38.3 40.8 21.0 36 11.8 ENE 9 17 5 9 1005.9 1005.5 0.0
22/02:00pm 37.5 39.9 20.8 38 11.4 NW 9 15 5 8 1006.6 1006.2 0.0
22/01:30pm 37.9 39.5 21.5 38 11.2 NNE 15 20 8 11 1007.0 1006.6 0.0
22/01:00pm 37.5 38.8 21.6 39 10.9 NW 17 26 9 14 1007.5 1007.1 0.0
22/12:30pm 36.0 37.6 22.2 45 9.5 NNW 17 26 9 14 1007.9 1007.5 0.0
22/12:00pm 35.7 37.9 22.6 46 9.1 NNE 15 28 8 15 1008.3 1007.9 0.0
22/11:30am 34.9 36.5 22.2 47 8.7 N 17 26 9 14 1008.8 1008.4 0.0
22/11:00am 34.7 35.5 22.4 48 8.5 NNE 22 32 12 17 1008.9 1008.5 0.0
22/10:30am 34.0 35.9 22.7 51 7.8 N 17 24 9 13 1009.0 1008.6 0.0
22/10:00am 33.3 35.2 22.7 53 7.3 N 17 26 9 14 1009.0 1008.6 0.0
22/09:30am 32.3 34.6 22.7 57 6.6 N 15 20 8 11 1009.0 1008.6 0.0
22/09:00am 31.5 33.2 23.1 61 5.8 NNE 19 24 10 13 1009.0 1008.6 0.0
22/08:30am 31.0 32.6 22.9 62 5.6 N 19 24 10 13 1008.6 1008.2 0.0
22/08:00am 30.3 31.7 23.5 67 4.7 N 22 28 12 15 1008.5 1008.1 0.0
22/07:30am 29.5 30.6 23.7 71 4.0 N 24 28 13 15 1008.2 1007.8 0.0
22/07:00am 28.7 31.5 24.3 77 3.1 NNE 17 22 9 12 1008.1 1007.7 0.0
22/06:30am 28.3 30.3 23.9 77 3.0 NNE 20 26 11 14 1008.0 1007.6 0.0
22/06:00am 28.3 29.9 23.9 77 3.0 NE 22 26 12 14 1007.6 1007.2 0.0
22/05:30am 28.4 30.0 23.8 76 3.2 NE 22 28 12 15 1007.3 1006.9 0.0
22/05:00am 28.9 30.5 23.8 74 3.5 NE 22 28 12 15 1007.1 1006.7 0.0
22/04:30am 28.9 30.9 24.0 75 3.4 NE 20 24 11 13 1007.2 1006.8 0.0
22/04:00am 29.3 32.1 23.7 72 3.9 NNE 15 19 8 10 1007.3 1006.9 0.0
22/03:30am 29.6 32.2 23.3 69 4.3 NE 15 17 8 9 1007.5 1007.1 0.0
22/03:00am 30.1 32.6 22.5 63 5.2 NE 13 17 7 9 1007.5 1007.1 0.0
22/02:30am 30.2 33.1 22.4 63 5.3 ENE 11 15 6 8 1007.5 1007.1 0.0
22/02:00am 30.4 33.6 22.3 62 5.5 E 9 13 5 7 1007.5 1007.1 0.0
22/01:30am 30.6 34.3 22.5 62 5.5 ENE 7 11 4 6 1007.7 1007.3 0.0
22/01:00am 30.5 33.7 23.7 67 4.7 ENE 13 20 7 11 1007.8 1007.4 0.0
22/12:30am 31.0 35.3 23.6 64 5.1 NNE 7 11 4 6 1007.9 1007.5 0.0
22/12:00am 30.9 34.5 23.8 66 4.9 NNE 11 17 6 9 1008.1 1007.7 0.0
 
Date/Time
EST
Temp
°C
App
Temp
°C
Dew
Point
°C
Rel
Hum
%
Delta-T
°C
Wind Press
QNH
hPa
Press
MSL
hPa
Rain since
9am
mm
Dir  Spd
km/h
Gust
km/h
Spd
kts
Gust
kts
21/11:30pm 31.3 33.3 23.9 64 5.1 N 20 26 11 14 1008.5 1008.1 0.0
21/11:00pm 31.2 32.4 22.2 58 6.1 N 19 24 10 13 1008.4 1008.0 0.0
21/10:30pm 31.8 31.6 22.8 59 6.2 NE 28 39 15 21 1008.0 1007.6 0.0
21/10:16pm 33.4 35.0 22.2 52 7.7 E 17 39 9 21 1008.0 1007.6 0.0
21/10:00pm 35.5 38.0 22.4 46 9.0 ESE 13 17 7 9 1007.5 1007.1 0.0
21/09:30pm 35.6 38.3 22.2 46 9.2 ESE 11 15 6 8 1006.9 1006.5 0.0
21/09:00pm 37.1 37.6 20.8 38 11.1 S 19 26 10 14 1006.3 1005.9 0.0
21/08:30pm 37.5 38.0 21.2 38 11.1 S 20 26 11 14 1005.9 1005.5 0.0
21/08:00pm 37.6 37.5 20.8 37 11.4 S 22 28 12 15 1005.6 1005.2 0.0
21/07:30pm 38.2 38.4 21.4 37 11.5 S 22 30 12 16 1005.1 1004.7 0.0
21/07:00pm 38.7 38.6 19.5 32 12.9 S 19 26 10 14 1004.5 1004.1 0.0
21/06:30pm 39.5 39.8 20.7 33 12.8 SSW 20 30 11 16 1004.1 1003.7 0.0
21/06:00pm 39.7 40.8 21.3 34 12.7 SSW 17 22 9 12 1004.0 1003.6 0.0
21/05:30pm 38.7 38.3 20.9 35 12.1 SSW 24 33 13 18 1003.6 1003.2 0.0
21/05:00pm 39.7 39.5 21.3 34 12.7 SSW 24 37 13 20 1003.4 1003.0 0.0
21/04:30pm 39.4 39.3 21.5 35 12.3 SW 24 32 13 17 1003.9 1003.5 0.0
21/04:00pm 39.2 40.1 20.9 34 12.5 SW 17 24 9 13 1004.4 1004.0 0.0
21/03:30pm 38.2 40.5 21.4 37 11.5 S 11 17 6 9 1005.0 1004.6 0.0
21/03:00pm 36.7 38.8 22.4 43 9.9 SSW 15 20 8 11 1005.5 1005.1 0.0
21/02:30pm 36.3 38.4 22.5 45 9.5 SSW 15 20 8 11 1006.0 1005.6 0.0
21/02:00pm 37.0 39.3 23.4 45 9.5 SSW 17 24 9 13 1006.4 1006.0 0.0
21/01:30pm 37.5 39.5 23.9 45 9.6 SW 20 32 11 17 1006.6 1006.2 0.0

Other Formats:

Comma delimited format used in spreadsheet applications
http://www.bom.gov.au/fwo/IDQ60801/IDQ60801.95482.axf

JavaScript Object Notation format (JSON) in row-major order
http://www.bom.gov.au/fwo/IDQ60801/IDQ60801.95482.json